createdAt,value
2019-06-20T00:03:25.796Z,9.03
2019-06-20T00:07:30.345Z,12.10
2019-06-20T00:11:35.041Z,11.37
2019-06-20T00:15:40.412Z,11.03
2019-06-20T00:19:44.995Z,11.37
2019-06-20T00:23:49.576Z,11.63
2019-06-20T00:27:54.131Z,11.57
2019-06-20T00:31:58.650Z,9.90
2019-06-20T00:36:03.201Z,9.90
2019-06-20T00:40:08.689Z,8.87
2019-06-20T00:44:13.231Z,8.87
2019-06-20T00:48:17.842Z,8.37
2019-06-20T00:52:22.398Z,8.53
2019-06-20T00:56:26.983Z,7.17
2019-06-20T01:00:31.603Z,6.77
2019-06-20T01:04:36.152Z,5.83
2019-06-20T01:08:40.796Z,5.87
2019-06-20T01:12:45.335Z,5.30
2019-06-20T01:16:49.992Z,4.67
2019-06-20T01:20:54.516Z,4.37
2019-06-20T01:24:59.132Z,3.90
2019-06-20T01:29:03.674Z,4.13
2019-06-20T01:33:08.214Z,4.53
2019-06-20T01:37:12.747Z,5.20
2019-06-20T01:41:17.264Z,4.50
2019-06-20T01:45:21.878Z,5.20
2019-06-20T01:49:26.382Z,6.20
2019-06-20T01:53:30.928Z,6.67
2019-06-20T01:57:35.532Z,8.20
2019-06-20T02:01:40.059Z,9.37
2019-06-20T02:05:44.949Z,10.17
2019-06-20T02:09:49.496Z,11.13
2019-06-20T02:14:06.828Z,16.17
2019-06-20T02:18:00.463Z,18.83
2019-06-20T02:22:05.307Z,18.47
2019-06-20T02:26:09.972Z,18.40
2019-06-20T02:30:14.632Z,19.23
2019-06-20T02:34:19.174Z,20.00
2019-06-20T02:38:23.749Z,19.90
2019-06-20T02:42:28.369Z,22.00
2019-06-20T02:46:33.031Z,23.13
2019-06-20T02:50:37.743Z,21.73
2019-06-20T02:54:42.415Z,20.43
2019-06-20T02:58:46.955Z,21.03
2019-06-20T03:02:51.619Z,21.60
2019-06-20T03:06:56.176Z,21.97
2019-06-20T03:11:00.684Z,22.90
2019-06-20T03:15:06.265Z,24.17
2019-06-20T03:19:10.807Z,23.43
2019-06-20T03:23:15.430Z,23.33
2019-06-20T03:27:19.966Z,20.87
2019-06-20T03:31:24.512Z,22.77
2019-06-20T03:35:28.960Z,21.73
2019-06-20T03:39:33.512Z,20.07
2019-06-20T03:43:38.021Z,20.83
2019-06-20T03:47:42.601Z,21.20
2019-06-20T03:51:47.193Z,21.90
2019-06-20T03:55:51.729Z,23.10
2019-06-20T03:59:56.256Z,21.97
2019-06-20T04:04:00.794Z,22.90
2019-06-20T04:08:05.332Z,23.30
2019-06-20T04:12:09.880Z,21.93
2019-06-20T04:16:14.506Z,25.33
2019-06-20T04:20:19.123Z,25.80
2019-06-20T04:24:23.743Z,28.50
2019-06-20T04:28:28.307Z,30.47
2019-06-20T04:32:32.844Z,29.73
2019-06-20T04:36:37.394Z,29.17
2019-06-20T04:40:42.480Z,27.97
2019-06-20T04:44:47.034Z,28.63
2019-06-20T04:48:51.484Z,30.60
2019-06-20T04:52:56.026Z,30.73
2019-06-20T04:57:00.594Z,30.37
2019-06-20T05:01:05.160Z,31.17
2019-06-20T05:05:09.876Z,32.83
2019-06-20T05:09:14.427Z,29.73
2019-06-20T05:13:19.000Z,30.83
2019-06-20T05:17:23.616Z,30.17
2019-06-20T05:21:28.243Z,30.57
2019-06-20T05:25:32.890Z,29.33
2019-06-20T05:29:37.545Z,28.87
2019-06-20T05:33:42.109Z,28.80
2019-06-20T05:37:46.659Z,28.70
2019-06-20T05:41:51.214Z,28.67
2019-06-20T05:46:08.979Z,29.50
2019-06-20T05:50:02.062Z,28.17
2019-06-20T05:54:06.649Z,28.03
2019-06-20T05:58:11.202Z,27.17
2019-06-20T06:02:15.732Z,29.33
2019-06-20T06:06:20.273Z,28.10
2019-06-20T06:10:24.971Z,25.43
2019-06-20T06:14:29.720Z,26.33
2019-06-20T06:18:34.426Z,25.27
2019-06-20T06:22:38.990Z,25.63
2019-06-20T06:26:43.597Z,26.30
2019-06-20T06:30:48.202Z,25.33
2019-06-20T06:34:52.824Z,25.20
2019-06-20T06:38:57.425Z,23.63
2019-06-20T06:43:01.978Z,25.87
2019-06-20T06:47:06.490Z,24.37
2019-06-20T06:51:11.057Z,21.97
2019-06-20T06:55:15.852Z,22.63
2019-06-20T06:59:20.387Z,22.67
2019-06-20T07:03:24.941Z,22.60
2019-06-20T07:07:29.557Z,20.07
2019-06-20T07:11:34.203Z,20.10
2019-06-20T07:15:38.876Z,19.57
2019-06-20T07:19:43.399Z,17.80
2019-06-20T07:23:47.960Z,16.77
2019-06-20T07:27:52.530Z,15.27
2019-06-20T07:31:57.189Z,15.70
2019-06-20T07:36:01.756Z,16.93
2019-06-20T07:40:08.536Z,14.43
2019-06-20T07:44:12.903Z,14.47
2019-06-20T07:48:17.598Z,13.83
2019-06-20T07:52:22.637Z,13.23
2019-06-20T07:56:27.243Z,11.70
2019-06-20T08:00:32.059Z,12.37
2019-06-20T08:04:36.613Z,12.03
2019-06-20T08:08:41.224Z,10.57
2019-06-20T08:12:45.856Z,10.03
2019-06-20T08:16:50.505Z,11.10
2019-06-20T08:20:55.299Z,10.10
2019-06-20T08:25:00.966Z,10.53
2019-06-20T08:29:18.709Z,10.60
2019-06-20T08:33:12.444Z,9.73
2019-06-20T08:37:17.267Z,9.60
2019-06-20T08:41:21.820Z,8.80
2019-06-20T08:45:28.705Z,9.87
2019-06-20T08:49:32.979Z,8.70
2019-06-20T08:53:37.531Z,8.70
2019-06-20T08:57:42.233Z,9.10
2019-06-20T09:01:46.933Z,8.77
2019-06-20T09:05:51.483Z,7.57
2019-06-20T09:09:56.068Z,7.13
2019-06-20T09:14:01.492Z,8.37
2019-06-20T09:18:06.967Z,9.67
2019-06-20T09:22:11.515Z,8.70
2019-06-20T09:26:16.269Z,8.50
2019-06-20T09:30:21.045Z,9.60
2019-06-20T09:34:25.528Z,9.57
2019-06-20T09:38:30.119Z,9.50
2019-06-20T09:42:36.857Z,8.63
2019-06-20T09:46:40.976Z,8.70
2019-06-20T09:50:45.694Z,7.23
2019-06-20T09:54:51.617Z,7.73
2019-06-20T09:58:58.273Z,8.10
2019-06-20T10:03:02.921Z,8.73
2019-06-20T10:07:07.764Z,8.00
2019-06-20T10:11:12.529Z,7.47
2019-06-20T10:15:23.022Z,7.53
2019-06-20T10:19:27.577Z,7.67
2019-06-20T10:23:32.298Z,6.47
2019-06-20T10:27:36.784Z,6.17
2019-06-20T10:31:41.536Z,7.10
2019-06-20T10:35:47.010Z,6.40
2019-06-20T10:39:52.412Z,6.47
2019-06-20T10:43:56.883Z,5.97
2019-06-20T10:48:01.428Z,4.67
2019-06-20T10:52:07.474Z,5.43
2019-06-20T10:56:12.140Z,6.07
2019-06-20T11:00:30.286Z,6.00
2019-06-20T11:04:23.296Z,6.13
2019-06-20T11:08:27.900Z,5.63
2019-06-20T11:12:42.802Z,6.60
2019-06-20T11:16:40.127Z,6.50
2019-06-20T11:20:44.884Z,5.63
2019-06-20T11:24:49.523Z,5.63
2019-06-20T11:28:54.153Z,5.87
2019-06-20T11:32:58.797Z,6.37
2019-06-20T11:37:03.633Z,5.97
2019-06-20T11:41:08.427Z,6.27
2019-06-20T11:45:13.755Z,7.10
2019-06-20T11:49:18.455Z,7.17
2019-06-20T11:53:23.137Z,6.77
2019-06-20T11:57:27.754Z,7.97
2019-06-20T12:01:33.242Z,7.03
2019-06-20T12:05:38.654Z,8.00
2019-06-20T12:09:44.390Z,7.67
2019-06-20T12:13:48.996Z,8.10
2019-06-20T12:17:53.631Z,9.27
2019-06-20T12:21:58.241Z,9.13
2019-06-20T12:26:02.956Z,8.67
2019-06-20T12:30:09.897Z,8.97
2019-06-20T12:34:14.227Z,11.07
2019-06-20T12:38:18.860Z,10.50
2019-06-20T12:42:23.556Z,11.50
2019-06-20T12:46:28.302Z,10.10
2019-06-20T12:50:32.907Z,10.17
2019-06-20T12:54:38.164Z,8.90
2019-06-20T12:58:44.441Z,9.60
2019-06-20T13:02:49.758Z,9.03
2019-06-20T13:06:54.451Z,8.50
2019-06-20T13:10:59.038Z,8.17
2019-06-20T13:15:04.823Z,7.53
2019-06-20T13:19:09.484Z,7.47
2019-06-20T13:23:14.329Z,7.33
2019-06-20T13:27:19.009Z,7.37
2019-06-20T13:31:23.671Z,7.73
2019-06-20T13:35:28.463Z,7.10
2019-06-20T13:39:33.019Z,7.30
2019-06-20T13:43:37.576Z,7.40
2019-06-20T13:47:43.100Z,6.37
2019-06-20T13:51:47.931Z,6.10
2019-06-20T13:55:52.448Z,4.87
2019-06-20T13:59:57.065Z,4.97
2019-06-20T14:04:01.560Z,5.57
2019-06-20T14:08:06.403Z,5.40
2019-06-20T14:12:11.016Z,5.00
2019-06-20T14:16:15.632Z,5.00
2019-06-20T14:20:21.560Z,5.63
2019-06-20T14:24:26.187Z,10.30
2019-06-20T14:28:30.838Z,5.13
2019-06-20T14:32:35.417Z,4.87
2019-06-20T14:36:40.101Z,5.63
2019-06-20T14:40:45.309Z,6.37
2019-06-20T14:44:49.969Z,5.73
2019-06-20T14:48:54.513Z,6.60
2019-06-20T14:52:59.081Z,5.30
2019-06-20T14:57:03.744Z,5.27
2019-06-20T15:01:08.346Z,4.73
2019-06-20T15:05:16.942Z,3.50
2019-06-20T15:09:21.539Z,2.83
2019-06-20T15:13:26.100Z,3.33
2019-06-20T15:17:30.713Z,2.77
2019-06-20T15:21:35.321Z,2.77
2019-06-20T15:25:39.991Z,3.30
2019-06-20T15:29:47.018Z,2.60
2019-06-20T15:33:51.682Z,2.90
2019-06-20T15:37:57.670Z,2.87
2019-06-20T15:42:02.567Z,2.30
2019-06-20T15:46:07.371Z,2.27
2019-06-20T15:50:12.651Z,2.53
2019-06-20T15:54:17.269Z,2.43
2019-06-20T15:58:22.209Z,1.90
2019-06-20T16:02:26.748Z,1.90
2019-06-20T16:06:31.420Z,2.20
2019-06-20T16:10:36.027Z,2.10
2019-06-20T16:14:40.601Z,2.03
2019-06-20T16:18:45.205Z,1.73
2019-06-20T16:22:49.928Z,2.03
2019-06-20T16:26:54.483Z,2.33
2019-06-20T16:31:08.276Z,2.40
2019-06-20T16:35:08.664Z,2.27
2019-06-20T16:39:13.325Z,2.73
2019-06-20T16:43:18.119Z,3.03
2019-06-20T16:47:22.746Z,3.40
2019-06-20T16:51:27.292Z,3.10
2019-06-20T16:55:31.969Z,3.97
2019-06-20T16:59:36.567Z,4.63
2019-06-20T17:03:42.215Z,4.60
2019-06-20T17:07:47.003Z,4.00
2019-06-20T17:11:51.737Z,4.20
2019-06-20T17:15:56.271Z,3.10
2019-06-20T17:20:00.884Z,2.87
2019-06-20T17:24:05.683Z,4.00
2019-06-20T17:28:10.295Z,4.40
2019-06-20T17:32:14.815Z,6.47
2019-06-20T17:36:19.442Z,6.40
2019-06-20T17:40:24.910Z,6.60
2019-06-20T17:44:29.438Z,6.43
2019-06-20T17:48:34.002Z,5.80
2019-06-20T17:52:38.674Z,5.40
2019-06-20T17:56:43.387Z,5.23
2019-06-20T18:00:48.143Z,5.47
2019-06-20T18:04:52.755Z,5.83
2019-06-20T18:08:57.466Z,6.40
2019-06-20T18:13:02.055Z,6.93
2019-06-20T18:17:06.817Z,6.60
2019-06-20T18:21:11.604Z,6.83
2019-06-20T18:25:16.347Z,6.10
2019-06-20T18:29:20.860Z,6.70
2019-06-20T18:33:25.447Z,7.47
2019-06-20T18:37:31.703Z,6.93
2019-06-20T18:41:36.752Z,7.07
2019-06-20T18:45:41.358Z,6.70
2019-06-20T18:49:46.045Z,6.63
2019-06-20T18:53:50.784Z,7.83
2019-06-20T18:57:55.478Z,8.60
2019-06-20T19:02:00.376Z,9.13
2019-06-20T19:06:04.991Z,8.80
2019-06-20T19:10:11.309Z,8.93
2019-06-20T19:14:15.952Z,8.90
2019-06-20T19:18:23.012Z,7.77
2019-06-20T19:22:26.938Z,7.00
2019-06-20T19:26:31.575Z,6.53
2019-06-20T19:30:50.580Z,6.77
2019-06-20T19:35:01.821Z,6.30
2019-06-20T19:39:01.443Z,6.57
2019-06-20T19:43:06.089Z,7.13
2019-06-20T19:47:10.760Z,7.47
2019-06-20T19:51:15.419Z,7.10
2019-06-20T19:55:20.220Z,8.57
2019-06-20T19:59:24.822Z,7.00
2019-06-20T20:03:29.510Z,8.60
2019-06-20T20:07:34.230Z,8.53
2019-06-20T20:11:38.987Z,9.57
2019-06-20T20:15:44.361Z,8.30
2019-06-20T20:19:48.965Z,9.40
2019-06-20T20:23:53.604Z,8.53
2019-06-20T20:27:58.229Z,9.50
2019-06-20T20:32:02.956Z,9.00
2019-06-20T20:36:07.589Z,9.33
2019-06-20T20:40:12.612Z,8.60
2019-06-20T20:44:17.254Z,9.50
2019-06-20T20:48:21.879Z,8.60
2019-06-20T20:52:26.462Z,8.70
2019-06-20T20:56:31.151Z,7.97
2019-06-20T21:00:50.695Z,9.17
2019-06-20T21:04:55.343Z,9.30
2019-06-20T21:08:59.909Z,8.37
2019-06-20T21:13:04.584Z,7.57
2019-06-20T21:17:09.199Z,8.73
2019-06-20T21:21:13.709Z,8.17
2019-06-20T21:25:18.244Z,9.40
2019-06-20T21:29:22.798Z,8.70
2019-06-20T21:33:27.431Z,7.93
2019-06-20T21:37:31.939Z,8.63
2019-06-20T21:41:36.510Z,9.00
2019-06-20T21:45:41.178Z,9.93
2019-06-20T21:49:45.729Z,10.03
2019-06-20T21:53:50.255Z,9.77
2019-06-20T21:57:54.903Z,9.57
2019-06-20T22:01:59.664Z,9.50
2019-06-20T22:06:04.438Z,9.33
2019-06-20T22:10:09.414Z,9.43
2019-06-20T22:14:14.008Z,9.63
2019-06-20T22:18:18.627Z,10.73
2019-06-20T22:22:23.175Z,10.43
2019-06-20T22:26:27.778Z,10.37
2019-06-20T22:30:41.471Z,8.93
2019-06-20T22:34:46.028Z,10.30
2019-06-20T22:38:50.587Z,10.23
2019-06-20T22:42:55.176Z,9.23
2019-06-20T22:46:59.736Z,8.50
2019-06-20T22:51:04.281Z,10.53
2019-06-20T22:55:09.043Z,11.97
2019-06-20T22:59:13.598Z,9.77
2019-06-20T23:03:18.123Z,10.77
2019-06-20T23:07:22.745Z,11.13
2019-06-20T23:11:27.292Z,12.13
2019-06-20T23:15:31.979Z,11.33
2019-06-20T23:19:36.509Z,10.60
2019-06-20T23:23:41.099Z,12.00
2019-06-20T23:27:46.394Z,10.90
2019-06-20T23:31:52.251Z,11.50
2019-06-20T23:35:56.804Z,12.27
2019-06-20T23:40:01.502Z,10.53
2019-06-20T23:44:06.057Z,13.57
2019-06-20T23:48:10.682Z,14.40
2019-06-20T23:52:25.514Z,12.43
2019-06-20T23:56:30.051Z,14.87
